Time;durP1;ratioP1;P1;durP2;ratioP2;P2;SDS_P1;SDS_P2;PMS_P1;PMS_P2;Temp;Humidity;BMP_temperature;BMP_pressure;BME280_temperature;BME280_humidity;BME280_pressure;Samples;Min_cycle;Max_cycle;Signal;HPM_P1;HPM_P2
2022/01/04 00:00:37;;;;;;;7.40;3.80;;;;;;;8.90;59.87;101370.75;2078924;28;20266;-66
2022/01/04 00:01:37;;;;;;;6.10;4.03;;;;;;;8.88;59.85;101369.59;2080723;28;20675;-66
2022/01/04 00:02:38;;;;;;;6.37;3.93;;;;;;;8.88;59.38;101372.34;2080764;28;20259;-66
2022/01/04 00:03:40;;;;;;;5.47;3.97;;;;;;;8.49;59.83;101308.19;2080803;28;20179;-66
2022/01/04 00:04:41;;;;;;;4.95;4.00;;;;;;;8.90;59.96;101373.53;2080519;28;20225;-66
2022/01/04 00:05:41;;;;;;;6.20;4.10;;;;;;;8.61;59.81;101316.03;2080811;28;20182;-66
2022/01/04 00:06:45;;;;;;;5.90;4.03;;;;;;;8.97;59.60;101379.00;2080845;28;20180;-66
2022/01/04 00:07:45;;;;;;;6.33;4.33;;;;;;;8.92;59.81;101379.44;2080277;28;20654;-66
2022/01/04 00:08:46;;;;;;;4.90;3.83;;;;;;;8.84;59.75;101358.56;2080618;28;20893;-66
2022/01/04 00:09:46;;;;;;;6.73;4.20;;;;;;;9.02;59.49;101383.34;2080183;28;20185;-66
2022/01/04 00:10:47;;;;;;;6.57;4.43;;;;;;;9.06;59.40;101384.09;2079992;28;20176;-66
2022/01/04 00:14:10;;;;;;;7.23;4.47;;;;;;;8.25;59.84;101282.25;2080751;28;20391;-66
2022/01/04 00:15:11;;;;;;;7.53;4.63;;;;;;;8.82;59.79;101379.50;2080686;28;20501;-66
2022/01/04 00:16:12;;;;;;;7.83;4.67;;;;;;;8.11;59.79;101265.72;2080630;28;20430;-66
2022/01/04 00:17:13;;;;;;;6.40;4.57;;;;;;;8.82;59.88;101380.25;2080692;28;20240;-66
2022/01/04 00:18:13;;;;;;;8.60;4.63;;;;;;;8.74;60.06;101367.69;2080348;28;20476;-66
2022/01/04 00:19:14;;;;;;;7.63;4.63;;;;;;;8.86;59.88;101371.97;2080675;28;20276;-66
2022/01/04 00:20:14;;;;;;;5.90;4.13;;;;;;;8.89;59.80;101379.44;2078909;28;20185;-66
2022/01/04 00:21:15;;;;;;;7.87;4.40;;;;;;;8.89;60.02;101382.22;2080063;28;20179;-66
2022/01/04 00:22:15;;;;;;;7.33;4.83;;;;;;;8.94;59.58;101368.78;2080652;28;20180;-66
2022/01/04 00:23:17;;;;;;;7.00;4.93;;;;;;;8.92;60.06;101378.66;2080713;28;20177;-66
2022/01/04 00:24:17;;;;;;;8.43;5.00;;;;;;;8.90;59.69;101376.28;2080659;28;20553;-66
2022/01/04 00:25:18;;;;;;;8.00;5.20;;;;;;;8.88;59.93;101375.91;2080691;28;20439;-66
2022/01/04 00:26:18;;;;;;;7.47;4.90;;;;;;;8.91;59.55;101375.09;2080582;28;20209;-66
2022/01/04 00:27:19;;;;;;;7.00;4.50;;;;;;;8.93;59.55;101377.47;2080666;28;20497;-66
2022/01/04 00:28:19;;;;;;;9.20;5.60;;;;;;;8.94;59.78;101373.50;2080211;28;20185;-66
2022/01/04 00:29:20;;;;;;;7.43;4.70;;;;;;;8.92;59.78;101379.44;2080379;28;20673;-66
2022/01/04 00:30:21;;;;;;;7.13;4.63;;;;;;;8.07;59.64;101248.41;2079671;28;20176;-66
2022/01/04 00:31:21;;;;;;;7.17;4.70;;;;;;;8.83;59.65;101384.63;2080578;28;20710;-66
2022/01/04 00:32:22;;;;;;;7.17;5.30;;;;;;;8.90;59.55;101401.16;2080589;28;20260;-66
2022/01/04 00:33:23;;;;;;;7.23;5.13;;;;;;;8.72;59.74;101364.53;2080495;28;20669;-66
2022/01/04 00:34:24;;;;;;;7.60;4.43;;;;;;;8.92;59.70;101384.97;2080522;28;20223;-66
2022/01/04 00:35:24;;;;;;;6.70;4.43;;;;;;;8.18;59.63;101276.75;2080578;28;20427;-66
2022/01/04 00:36:25;;;;;;;7.67;4.87;;;;;;;8.94;59.48;101393.66;2080696;28;20171;-66
2022/01/04 00:37:26;;;;;;;8.27;5.07;;;;;;;8.91;59.27;101391.69;2080555;28;20180;-66
2022/01/04 00:38:26;;;;;;;6.80;4.90;;;;;;;8.54;59.51;101325.16;2080325;28;20192;-66
2022/01/04 00:39:27;;;;;;;7.40;4.60;;;;;;;8.93;59.50;101385.75;2080604;28;20593;-66
2022/01/04 00:40:27;;;;;;;6.23;4.60;;;;;;;8.93;59.29;101378.25;2079349;28;20661;-66
2022/01/04 00:41:28;;;;;;;6.63;4.53;;;;;;;8.90;59.46;101390.13;2080670;28;20176;-66
2022/01/04 00:42:28;;;;;;;7.53;4.80;;;;;;;7.73;59.38;101211.44;2080685;28;20201;-66
2022/01/04 00:43:29;;;;;;;7.07;4.57;;;;;;;8.86;59.48;101391.34;2080541;28;20192;-66
2022/01/04 00:44:29;;;;;;;7.07;4.60;;;;;;;8.72;60.09;101352.69;2080601;28;20223;-66
2022/01/04 00:45:32;;;;;;;7.83;4.57;;;;;;;8.89;59.79;101380.25;2080601;28;20185;-66
2022/01/04 00:46:32;;;;;;;8.13;5.03;;;;;;;8.78;59.84;101370.44;2080751;28;20184;-66
2022/01/04 00:49:09;;;;;;;7.37;4.67;;;;;;;8.83;59.80;101383.81;2080094;28;20423;-66
2022/01/04 00:49:11;;;;;;;9.30;5.00;;;;;;;8.83;59.85;101386.59;2080342;28;20213;-66
2022/01/04 00:50:13;;;;;;;7.70;4.57;;;;;;;8.81;59.96;101380.69;2079373;28;20395;-66
2022/01/04 00:51:13;;;;;;;6.73;4.67;;;;;;;8.84;59.93;101385.41;2080938;28;20429;-66
2022/01/04 00:52:16;;;;;;;7.00;4.90;;;;;;;8.77;60.11;101379.91;2081814;28;20430;-66
2022/01/04 00:53:17;;;;;;;8.07;4.80;;;;;;;8.32;59.69;101323.66;2082045;28;20238;-66
2022/01/04 00:54:18;;;;;;;6.53;4.10;;;;;;;8.69;60.05;101387.44;2081156;28;20456;-66
2022/01/04 00:55:19;;;;;;;9.07;4.87;;;;;;;8.67;60.19;101380.75;2081450;28;20459;-66
2022/01/04 00:56:20;;;;;;;6.73;4.80;;;;;;;8.67;60.23;101386.28;2082168;28;20427;-66
2022/01/04 00:57:21;;;;;;;10.50;5.07;;;;;;;8.66;59.97;101384.69;2081885;28;20689;-66
2022/01/04 00:58:21;;;;;;;5.97;4.50;;;;;;;8.69;59.78;101375.59;2081842;28;20239;-66
2022/01/04 00:59:22;;;;;;;7.00;4.73;;;;;;;8.65;60.07;101383.09;2081977;28;20190;-66
2022/01/04 01:00:23;;;;;;;6.37;4.27;;;;;;;8.62;60.39;101381.94;2080880;28;20188;-66
2022/01/04 01:01:23;;;;;;;6.67;4.43;;;;;;;7.35;60.51;101193.03;2081902;28;20182;-66
2022/01/04 01:02:24;;;;;;;6.70;4.43;;;;;;;8.56;60.19;101382.78;2082054;28;20420;-66
2022/01/04 01:03:24;;;;;;;6.87;4.23;;;;;;;8.53;60.60;101380.78;2082037;28;20178;-66
2022/01/04 01:04:25;;;;;;;7.53;4.67;;;;;;;8.18;60.50;101331.16;2081809;28;20224;-66
2022/01/04 01:05:26;;;;;;;6.50;4.67;;;;;;;8.57;60.54;101382.34;2081941;28;20724;-66
2022/01/04 01:06:28;;;;;;;9.33;4.80;;;;;;;8.57;61.02;101382.34;2081771;28;20603;-66
2022/01/04 01:07:28;;;;;;;6.70;4.53;;;;;;;8.58;61.05;101377.63;2081468;28;20510;-66
2022/01/04 01:08:29;;;;;;;7.20;5.00;;;;;;;7.81;60.81;101251.63;2081704;28;20695;-66
2022/01/04 01:09:33;;;;;;;6.00;4.30;;;;;;;8.61;61.01;101380.38;2081863;28;20180;-66
2022/01/04 01:10:46;;;;;;;7.90;4.37;;;;;;;8.65;60.54;101369.28;2080814;28;20175;-66
2022/01/04 01:11:47;;;;;;;6.13;4.20;;;;;;;8.68;60.57;101379.56;2081747;28;21302;-66
2022/01/04 01:12:48;;;;;;;6.60;4.50;;;;;;;8.56;60.71;101366.19;2081902;28;20803;-66
2022/01/04 01:13:48;;;;;;;7.03;4.13;;;;;;;8.54;60.53;101358.28;2081811;28;20187;-66
2022/01/04 01:14:49;;;;;;;5.97;4.13;;;;;;;8.63;60.87;101377.22;2081976;28;20179;-66
2022/01/04 01:15:49;;;;;;;6.43;4.23;;;;;;;8.60;60.56;101373.25;2081753;28;20593;-66
2022/01/04 01:16:50;;;;;;;7.23;4.40;;;;;;;8.60;60.79;101376.03;2082071;28;20180;-66
2022/01/04 01:17:51;;;;;;;8.37;4.57;;;;;;;8.58;61.00;101375.66;2080673;28;20598;-66
2022/01/04 01:18:51;;;;;;;7.27;4.60;;;;;;;8.68;60.63;101379.56;2081264;28;20269;-66
2022/01/04 01:19:52;;;;;;;8.13;4.40;;;;;;;8.70;60.47;101368.88;2081204;28;20183;-66
2022/01/04 01:20:53;;;;;;;7.00;4.40;;;;;;;8.73;60.49;101379.94;2081230;28;20660;-66
2022/01/04 01:21:54;;;;;;;9.37;4.73;;;;;;;8.79;60.40;101366.47;2081822;28;20272;-66
2022/01/04 01:22:54;;;;;;;7.37;4.97;;;;;;;8.71;60.20;101368.47;2081849;28;20438;-66
2022/01/04 01:23:55;;;;;;;7.13;4.33;;;;;;;7.67;60.74;101206.72;2081617;28;20194;-66
2022/01/04 01:24:55;;;;;;;6.33;4.77;;;;;;;8.10;60.29;101282.69;2081889;28;20195;-66
2022/01/04 01:25:56;;;;;;;6.43;4.53;;;;;;;8.60;60.68;101381.56;2081742;28;20330;-66
2022/01/04 01:26:57;;;;;;;6.93;4.63;;;;;;;8.63;60.46;101382.72;2081836;28;20183;-66
2022/01/04 01:27:57;;;;;;;7.57;4.93;;;;;;;8.63;60.25;101366.94;2081040;28;20591;-66
2022/01/04 01:28:58;;;;;;;7.57;5.30;;;;;;;8.40;60.45;101327.19;2081639;28;20227;-66
2022/01/04 01:29:58;;;;;;;7.53;5.13;;;;;;;8.74;60.58;101373.22;2081175;28;20621;-66
2022/01/04 01:31:00;;;;;;;7.63;5.20;;;;;;;8.69;60.85;101370.06;2081194;28;20203;-66
2022/01/04 01:32:00;;;;;;;8.10;4.97;;;;;;;8.72;60.85;101369.28;2081644;28;20184;-66
2022/01/04 01:33:01;;;;;;;6.73;4.47;;;;;;;8.67;60.83;101356.66;2081713;28;20477;-66
2022/01/04 01:34:01;;;;;;;7.70;4.90;;;;;;;8.65;60.48;101358.25;2081692;28;20209;-66
2022/01/04 01:35:02;;;;;;;7.47;4.83;;;;;;;8.66;60.69;101368.91;2081797;28;20176;-66
2022/01/04 01:36:03;;;;;;;6.63;4.77;;;;;;;8.59;60.60;101360.66;2081737;28;20177;-66
2022/01/04 01:37:04;;;;;;;6.93;4.63;;;;;;;8.64;60.80;101364.97;2081669;28;20498;-66
2022/01/04 01:38:05;;;;;;;7.90;5.33;;;;;;;7.69;60.90;101216.19;2081390;28;20173;-66
2022/01/04 01:39:06;;;;;;;7.27;5.00;;;;;;;8.59;60.71;101363.41;2081678;28;20172;-66
2022/01/04 01:40:07;;;;;;;7.43;5.03;;;;;;;8.61;60.86;101365.78;2080281;28;21033;-66
2022/01/04 01:41:07;;;;;;;8.03;4.87;;;;;;;8.69;60.98;101368.09;2081729;28;20203;-66
2022/01/04 01:42:08;;;;;;;7.50;5.20;;;;;;;8.75;60.65;101360.16;2081611;28;20200;-66
2022/01/04 01:43:09;;;;;;;8.07;5.20;;;;;;;8.75;60.61;101358.19;2081654;28;20219;-66
2022/01/04 01:44:10;;;;;;;8.83;5.20;;;;;;;8.50;60.52;101321.59;2081693;28;20169;-66
2022/01/04 01:45:13;;;;;;;8.33;5.17;;;;;;;8.73;60.90;101354.25;2081701;28;20181;-66
2022/01/04 01:46:13;;;;;;;7.70;5.03;;;;;;;7.85;60.53;101227.56;2081675;28;20182;-66
2022/01/04 01:47:14;;;;;;;6.80;5.13;;;;;;;8.71;60.61;101348.38;2081676;28;20483;-66
2022/01/04 01:48:14;;;;;;;7.40;5.00;;;;;;;8.71;60.47;101351.13;2081165;28;20174;-66
2022/01/04 01:49:15;;;;;;;6.60;5.00;;;;;;;8.75;60.56;101349.13;2081473;28;20211;-66
2022/01/04 01:50:16;;;;;;;8.10;5.40;;;;;;;8.78;60.47;101351.09;2080403;28;20175;-66
2022/01/04 01:51:17;;;;;;;8.87;5.37;;;;;;;8.72;60.16;101338.88;2081471;28;20609;-66
2022/01/04 01:52:18;;;;;;;8.23;5.70;;;;;;;8.72;60.61;101347.94;2081387;28;20446;-66
2022/01/04 01:53:19;;;;;;;10.93;5.43;;;;;;;8.66;60.60;101344.03;2081690;28;20186;-66
2022/01/04 01:54:20;;;;;;;8.10;5.70;;;;;;;7.53;60.54;101174.44;2081475;28;20178;-66
2022/01/04 01:55:22;;;;;;;7.33;5.40;;;;;;;8.63;60.90;101339.31;2080697;28;20184;-66
2022/01/04 01:56:23;;;;;;;7.27;5.80;;;;;;;8.72;60.30;101327.81;2080963;28;20472;-66
2022/01/04 01:57:24;;;;;;;8.97;5.73;;;;;;;8.31;60.44;101277.13;2081467;28;20457;-66
2022/01/04 01:58:24;;;;;;;9.73;5.30;;;;;;;8.68;60.52;101332.56;2081211;28;20566;-66
2022/01/04 01:59:25;;;;;;;7.80;5.13;;;;;;;8.72;60.95;101330.59;2081530;28;20194;-66
2022/01/04 02:00:27;;;;;;;7.07;5.50;;;;;;;8.75;60.57;101335.28;2080511;28;20189;-66
2022/01/04 02:01:28;;;;;;;8.30;5.40;;;;;;;8.75;60.60;101332.53;2081584;28;20659;-66
2022/01/04 02:02:28;;;;;;;8.90;5.77;;;;;;;7.47;60.50;101131.94;2081206;28;20817;-66
2022/01/04 02:03:29;;;;;;;9.00;6.03;;;;;;;8.68;60.61;101327.84;2080750;28;20729;-66
2022/01/04 02:04:29;;;;;;;7.33;5.57;;;;;;;8.74;60.82;101333.72;2081444;28;20235;-66
2022/01/04 02:05:30;;;;;;;8.60;5.20;;;;;;;8.71;60.76;101318.75;2081446;28;20199;-66
2022/01/04 02:06:31;;;;;;;8.53;5.43;;;;;;;8.68;60.92;101327.84;2081535;28;20195;-66
2022/01/04 02:07:33;;;;;;;8.13;5.90;;;;;;;7.78;60.53;101196.44;2081425;28;20453;-66
2022/01/04 02:08:34;;;;;;;12.30;6.27;;;;;;;8.53;60.94;101353.97;2081402;28;20616;-66
2022/01/04 02:09:39;;;;;;;9.93;5.63;;;;;;;8.65;60.85;101334.16;2081280;28;20811;-66
2022/01/04 02:10:41;;;;;;;9.53;6.00;;;;;;;8.65;61.09;101323.13;2080071;28;20417;-66
2022/01/04 02:11:42;;;;;;;10.13;5.80;;;;;;;8.33;61.04;101278.28;2081402;28;20822;-66
2022/01/04 02:12:47;;;;;;;11.83;6.07;;;;;;;8.48;61.56;101332.28;2081369;28;20412;-66
2022/01/04 02:13:48;;;;;;;10.47;6.20;;;;;;;8.42;61.58;101324.81;2081405;28;21061;-66
2022/01/04 02:14:50;;;;;;;9.60;5.97;;;;;;;8.46;61.33;101318.06;2081565;28;20984;-66
2022/01/04 02:15:52;;;;;;;10.47;6.00;;;;;;;8.47;61.53;101340.97;2081195;28;20183;-66
2022/01/04 02:16:52;;;;;;;8.20;5.70;;;;;;;8.51;61.71;101320.41;2081487;28;20483;-66
2022/01/04 02:17:53;;;;;;;8.77;6.00;;;;;;;8.00;60.85;101225.56;2080824;28;20435;-66
2022/01/04 02:19:07;;;;;;;9.53;6.07;;;;;;;8.69;60.78;101325.84;2081474;28;20223;-66
2022/01/04 02:20:09;;;;;;;11.13;6.27;;;;;;;8.68;60.92;101329.81;2080333;28;20174;-66
2022/01/04 02:21:09;;;;;;;8.77;6.07;;;;;;;8.65;61.12;101323.13;2081408;28;20426;-66
2022/01/04 02:22:10;;;;;;;8.83;6.07;;;;;;;8.67;60.84;101323.50;2081362;28;20216;-66
2022/01/04 02:23:10;;;;;;;8.90;6.17;;;;;;;8.64;60.61;101324.31;2081417;28;20180;-66
2022/01/04 02:24:11;;;;;;;9.93;6.20;;;;;;;8.36;61.22;101285.00;2081396;28;20183;-66
2022/01/04 02:25:11;;;;;;;9.80;6.30;;;;;;;8.55;61.36;101315.66;2081504;28;20179;-66
2022/01/04 02:26:13;;;;;;;9.77;5.80;;;;;;;8.55;61.02;101318.44;2081358;28;20187;-66
2022/01/04 02:27:14;;;;;;;9.00;6.13;;;;;;;8.57;60.75;101321.56;2081223;28;20646;-66
2022/01/04 02:28:20;;;;;;;7.97;5.97;;;;;;;8.50;61.55;101324.38;2080986;28;20190;-66
2022/01/04 02:29:21;;;;;;;10.30;6.23;;;;;;;8.52;61.44;101310.16;2081109;28;20444;-66
2022/01/04 02:30:21;;;;;;;10.87;6.33;;;;;;;8.29;61.36;101296.84;2079466;28;21326;-66
2022/01/04 02:31:22;;;;;;;11.47;6.53;;;;;;;8.42;61.26;101319.28;2080708;28;20584;-66
2022/01/04 02:32:22;;;;;;;8.47;5.93;;;;;;;8.40;61.40;101314.16;2081249;28;20267;-66
2022/01/04 02:33:23;;;;;;;9.00;6.43;;;;;;;8.41;61.61;101324.00;2081097;28;20192;-66
2022/01/04 02:34:23;;;;;;;9.33;6.37;;;;;;;8.44;61.28;101325.97;2081341;28;20185;-66
2022/01/04 02:35:30;;;;;;;7.73;6.07;;;;;;;8.43;60.92;101320.84;2081234;28;20362;-66
2022/01/04 02:36:31;;;;;;;8.93;6.47;;;;;;;8.46;61.55;101320.06;2081338;28;20160;-66
2022/01/04 02:37:32;;;;;;;9.77;6.27;;;;;;;8.44;61.37;101317.69;2080932;28;20480;-66
2022/01/04 02:38:33;;;;;;;8.37;6.10;;;;;;;8.48;61.40;101328.72;2081386;28;20241;-66
2022/01/04 02:39:38;;;;;;;8.90;6.23;;;;;;;8.44;61.48;101322.41;2081052;28;20477;-66
2022/01/04 02:40:38;;;;;;;8.50;5.87;;;;;;;8.39;61.62;101320.88;2079998;28;20633;-66
2022/01/04 02:41:39;;;;;;;12.17;6.50;;;;;;;8.33;61.44;101327.19;2080919;28;20455;-66
2022/01/04 02:42:41;;;;;;;10.17;6.03;;;;;;;8.31;61.76;101332.34;2081246;28;20189;-66
2022/01/04 02:43:41;;;;;;;9.83;6.27;;;;;;;8.24;62.19;101330.38;2081178;28;20200;-66
2022/01/04 02:44:43;;;;;;;7.93;5.83;;;;;;;8.21;62.01;101331.19;2081246;28;20911;-66
2022/01/04 02:45:43;;;;;;;8.73;6.40;;;;;;;8.28;61.73;101336.69;2081081;28;20187;-66
2022/01/04 02:46:44;;;;;;;10.13;6.60;;;;;;;7.03;61.96;101148.16;2081191;28;20180;-66
2022/01/04 02:47:44;;;;;;;10.10;7.10;;;;;;;8.28;61.82;101322.88;2080652;28;20221;-66
2022/01/04 02:48:45;;;;;;;9.97;6.77;;;;;;;8.06;62.10;101315.84;2081018;28;20609;-66
2022/01/04 02:49:46;;;;;;;10.20;6.87;;;;;;;8.10;62.22;101308.31;2080777;28;20191;-66
2022/01/04 02:50:46;;;;;;;11.10;6.73;;;;;;;7.94;62.32;101299.69;2080531;28;20211;-66
2022/01/04 02:51:47;;;;;;;14.67;6.80;;;;;;;8.18;62.42;101317.34;2080855;28;20188;-66
2022/01/04 02:52:48;;;;;;;9.47;6.60;;;;;;;8.18;62.34;101322.88;2081006;28;20188;-66
2022/01/04 02:53:48;;;;;;;8.67;6.47;;;;;;;8.20;61.88;101324.09;2080959;28;20680;-66
2022/01/04 02:54:49;;;;;;;9.37;6.87;;;;;;;8.21;62.06;101325.66;2081239;28;20242;-66
2022/01/04 02:55:49;;;;;;;9.87;6.63;;;;;;;8.24;61.97;101321.31;2080998;28;20189;-66
2022/01/04 02:56:50;;;;;;;12.97;6.47;;;;;;;8.25;61.82;101328.44;2080543;28;20191;-66
2022/01/04 02:57:50;;;;;;;10.53;6.87;;;;;;;8.29;61.65;101329.19;2079951;28;20195;-66
2022/01/04 02:58:51;;;;;;;10.37;6.30;;;;;;;8.30;61.77;101328.03;2081323;28;20183;-66
2022/01/04 02:59:51;;;;;;;11.03;6.70;;;;;;;8.30;62.01;101320.50;2080474;28;20192;-66
2022/01/04 03:00:52;;;;;;;9.67;6.80;;;;;;;8.33;61.51;101329.97;2080494;28;20208;-66
2022/01/04 03:01:53;;;;;;;7.90;6.30;;;;;;;8.37;61.24;101317.72;2080914;28;20189;-66
2022/01/04 03:02:53;;;;;;;12.30;6.93;;;;;;;8.40;61.41;101327.97;2081277;28;20187;-66
2022/01/04 03:03:53;;;;;;;9.87;6.20;;;;;;;8.40;61.24;101329.94;2080654;28;20183;-66
2022/01/04 03:04:54;;;;;;;10.43;6.87;;;;;;;8.45;61.12;101329.53;2081009;28;20171;-66
2022/01/04 03:05:54;;;;;;;9.40;6.70;;;;;;;8.42;60.79;101328.38;2081059;28;20186;-66
2022/01/04 03:06:55;;;;;;;9.23;6.87;;;;;;;8.42;61.38;101319.28;2081220;28;20677;-66
2022/01/04 03:07:56;;;;;;;12.97;7.07;;;;;;;8.48;60.93;101320.44;2080599;28;20180;-66
2022/01/04 03:08:56;;;;;;;8.93;6.70;;;;;;;8.48;61.20;101317.69;2080164;28;20619;-66
2022/01/04 03:09:57;;;;;;;10.50;6.77;;;;;;;7.13;61.01;101119.03;2079784;28;20184;-66
2022/01/04 03:10:57;;;;;;;12.17;7.30;;;;;;;8.45;61.22;101322.03;2080259;28;20186;-66
2022/01/04 03:11:58;;;;;;;9.37;6.60;;;;;;;8.47;61.21;101316.09;2080886;28;20184;-66
2022/01/04 03:12:58;;;;;;;13.50;7.10;;;;;;;8.48;61.00;101326.75;2080337;28;20194;-66
2022/01/04 03:14:00;;;;;;;10.80;7.03;;;;;;;8.48;61.33;101321.22;2080225;28;20195;-66
2022/01/04 03:15:01;;;;;;;9.80;6.53;;;;;;;8.51;61.18;101311.34;2080223;28;20203;-66
2022/01/04 03:16:02;;;;;;;8.50;6.20;;;;;;;8.49;61.35;101313.72;2080261;28;20423;-66
2022/01/04 03:17:03;;;;;;;9.70;6.97;;;;;;;8.21;61.02;101280.72;2080974;28;20415;-66
2022/01/04 03:18:04;;;;;;;10.40;6.27;;;;;;;8.07;60.98;101231.81;2080509;28;20186;-66
2022/01/04 03:19:07;;;;;;;10.80;6.73;;;;;;;8.49;61.28;101314.50;2080970;28;20452;-66
2022/01/04 03:20:08;;;;;;;8.40;6.20;;;;;;;8.48;61.28;101303.88;2079814;28;20209;-66
2022/01/04 03:21:09;;;;;;;7.87;5.90;;;;;;;8.31;61.37;101268.84;2080612;28;20505;-66
2022/01/04 03:22:09;;;;;;;10.07;6.83;;;;;;;7.76;60.78;101177.56;2080906;28;20434;-66
2022/01/04 03:23:10;;;;;;;11.00;6.43;;;;;;;8.59;60.72;101301.84;2081006;28;20180;-66
2022/01/04 03:24:13;;;;;;;10.67;6.67;;;;;;;8.62;61.17;101307.34;2080777;28;20625;-66
2022/01/04 03:25:14;;;;;;;10.47;6.10;;;;;;;8.61;60.77;101311.28;2080945;28;20200;-66
2022/01/04 03:26:14;;;;;;;9.43;6.13;;;;;;;8.59;61.06;101302.63;2080906;28;20417;-66
2022/01/04 03:27:15;;;;;;;8.60;6.47;;;;;;;8.66;60.83;101304.56;2080900;28;20274;-66
2022/01/04 03:28:18;;;;;;;9.53;6.30;;;;;;;8.67;60.86;101298.63;2080481;28;20208;-66
2022/01/04 03:29:19;;;;;;;10.07;6.33;;;;;;;8.71;60.60;101304.16;2080673;28;20242;-66
2022/01/04 03:30:20;;;;;;;8.63;6.07;;;;;;;8.70;60.66;101297.81;2079706;28;20877;-66
2022/01/04 03:31:20;;;;;;;8.60;6.37;;;;;;;8.66;60.58;101282.47;2080813;28;20422;-66
2022/01/04 03:32:21;;;;;;;7.73;5.97;;;;;;;8.71;60.80;101296.63;2080211;28;20224;-66
2022/01/04 03:33:21;;;;;;;8.67;5.83;;;;;;;8.69;60.58;101296.25;2080198;28;20188;-66
2022/01/04 03:34:22;;;;;;;9.07;6.07;;;;;;;8.35;61.02;101245.53;2080829;28;20215;-66
2022/01/04 03:35:22;;;;;;;8.30;6.13;;;;;;;8.73;60.68;101294.28;2080915;28;20237;-66
2022/01/04 03:36:24;;;;;;;10.07;6.37;;;;;;;8.78;60.88;101293.84;2080790;28;20269;-66
2022/01/04 03:37:24;;;;;;;8.57;5.93;;;;;;;8.80;60.79;101291.44;2080810;28;20595;-66
2022/01/04 03:38:25;;;;;;;7.00;5.70;;;;;;;8.82;60.57;101291.81;2080775;28;20418;-66
2022/01/04 03:39:25;;;;;;;7.30;5.23;;;;;;;8.45;60.80;101236.41;2080774;28;20260;-66
2022/01/04 03:40:26;;;;;;;7.23;5.00;;;;;;;8.87;60.61;101296.16;2079658;28;20225;-66
2022/01/04 03:41:27;;;;;;;7.27;5.37;;;;;;;8.84;60.61;101283.13;2080733;28;20180;-66
2022/01/04 03:42:27;;;;;;;9.23;5.73;;;;;;;8.97;60.77;101295.31;2080773;28;20192;-66
2022/01/04 03:43:29;;;;;;;9.13;6.20;;;;;;;8.99;60.17;101304.78;2080653;28;20187;-66
2022/01/04 03:44:30;;;;;;;9.07;5.97;;;;;;;8.70;60.16;101258.34;2080943;28;20195;-66
2022/01/04 03:45:30;;;;;;;7.30;5.37;;;;;;;7.79;60.18;101110.50;2080802;28;20522;-66
2022/01/04 03:46:31;;;;;;;8.87;6.00;;;;;;;9.03;60.31;101310.28;2080847;28;20654;-66
2022/01/04 03:47:32;;;;;;;9.23;6.10;;;;;;;8.52;60.01;101232.81;2080434;28;20195;-66
2022/01/04 03:48:36;;;;;;;8.77;5.97;;;;;;;9.10;59.78;101307.44;2080876;28;20185;-66
2022/01/04 03:49:37;;;;;;;10.23;6.30;;;;;;;9.08;59.93;101310.59;2080703;28;20654;-66
2022/01/04 03:50:39;;;;;;;8.17;6.20;;;;;;;9.04;60.02;101318.16;2079606;28;20582;-66
2022/01/04 03:51:39;;;;;;;7.43;6.40;;;;;;;9.06;60.05;101314.97;2080516;28;20189;-66
2022/01/04 03:52:40;;;;;;;8.60;5.90;;;;;;;9.00;60.01;101313.81;2080555;28;20420;-66
2022/01/04 03:53:40;;;;;;;9.90;5.93;;;;;;;8.94;59.96;101309.94;2080038;28;20279;-66
2022/01/04 03:54:41;;;;;;;9.00;6.30;;;;;;;8.76;60.41;101290.69;2080142;28;20263;-66
2022/01/04 03:55:41;;;;;;;10.43;6.70;;;;;;;8.96;60.80;101319.38;2080653;28;20197;-66
2022/01/04 03:56:42;;;;;;;8.97;6.27;;;;;;;8.99;60.50;101323.31;2080801;28;20309;-66
2022/01/04 03:57:43;;;;;;;7.70;6.23;;;;;;;8.96;60.86;101315.84;2080199;28;20264;-66
2022/01/04 03:58:43;;;;;;;9.73;6.17;;;;;;;8.50;60.88;101257.31;2080875;28;20192;-66
2022/01/04 03:59:44;;;;;;;8.43;6.50;;;;;;;8.46;60.84;101251.78;2080417;28;20196;-66
2022/01/04 04:00:44;;;;;;;9.80;6.33;;;;;;;8.45;61.18;101252.97;2079897;28;20302;-66
2022/01/04 04:01:44;;;;;;;9.70;6.40;;;;;;;8.73;61.20;101296.22;2080625;28;20220;-66
2022/01/04 04:02:45;;;;;;;9.83;6.77;;;;;;;8.47;60.64;101258.91;2080979;28;20261;-66
2022/01/04 04:03:46;;;;;;;9.33;7.00;;;;;;;7.89;60.74;101167.63;2080414;28;20184;-66
2022/01/04 04:04:46;;;;;;;9.53;6.87;;;;;;;8.80;60.83;101315.53;2072614;28;20185;-66
2022/01/04 04:05:47;;;;;;;9.33;7.20;;;;;;;8.76;61.33;101298.97;2072532;28;20569;-66
2022/01/04 04:06:48;;;;;;;10.03;6.70;;;;;;;8.75;61.07;101305.69;2072547;28;20181;-66
2022/01/04 04:07:48;;;;;;;10.17;7.53;;;;;;;8.79;61.04;101300.94;2072121;28;20195;-66
2022/01/04 04:08:49;;;;;;;9.97;7.47;;;;;;;8.86;60.82;101300.13;2072613;28;20254;-66
2022/01/04 04:09:49;;;;;;;9.63;7.10;;;;;;;8.86;60.75;101295.34;2071810;28;20283;-66
2022/01/04 04:10:50;;;;;;;10.40;7.07;;;;;;;8.83;60.91;101301.72;2072070;28;20272;-66
2022/01/04 04:11:50;;;;;;;9.97;7.10;;;;;;;8.85;60.97;101299.31;2072438;28;20181;-66
2022/01/04 04:12:51;;;;;;;10.33;7.07;;;;;;;8.89;60.86;101299.28;2072559;28;20260;-66
2022/01/04 04:13:52;;;;;;;8.80;6.83;;;;;;;8.85;60.68;101301.28;2072184;28;20216;-66
2022/01/04 04:14:52;;;;;;;13.27;7.93;;;;;;;7.83;60.80;101135.31;2072656;28;20218;-66
2022/01/04 04:15:53;;;;;;;11.67;7.30;;;;;;;8.87;60.84;101298.94;2073262;28;20254;-66
2022/01/04 04:16:53;;;;;;;9.40;7.00;;;;;;;7.82;60.79;101150.31;2080736;28;20697;-66
2022/01/04 04:17:54;;;;;;;9.70;7.10;;;;;;;8.80;61.14;101298.94;2080186;28;20654;-66
2022/01/04 04:18:55;;;;;;;10.03;7.10;;;;;;;8.89;60.74;101302.06;2080628;28;20647;-66
2022/01/04 04:19:55;;;;;;;11.27;6.77;;;;;;;8.95;60.93;101300.44;2080250;28;20653;-66
2022/01/04 04:20:56;;;;;;;10.20;7.03;;;;;;;8.47;60.51;101211.94;2080054;28;20643;-66
2022/01/04 04:21:56;;;;;;;8.13;6.63;;;;;;;8.78;60.96;101266.22;2080526;28;20184;-66
2022/01/04 04:22:57;;;;;;;10.90;7.27;;;;;;;9.02;60.47;101294.88;2080703;28;20207;-66
2022/01/04 04:23:57;;;;;;;12.33;8.17;;;;;;;9.06;60.21;101299.19;2080537;28;20179;-66
2022/01/04 04:24:58;;;;;;;12.40;7.60;;;;;;;9.09;60.02;101294.81;2080625;28;20717;-66
2022/01/04 04:25:58;;;;;;;12.10;7.33;;;;;;;9.10;60.33;101296.38;2080565;28;20690;-66
2022/01/04 04:26:59;;;;;;;11.10;7.63;;;;;;;9.13;59.92;101298.34;2082256;28;20713;-66
2022/01/04 04:28:00;;;;;;;12.70;7.17;;;;;;;9.11;60.12;101287.69;2081682;28;20178;-66
2022/01/04 04:29:00;;;;;;;14.43;8.00;;;;;;;9.14;59.72;101286.09;2082074;28;20288;-66
2022/01/04 04:30:01;;;;;;;11.70;7.50;;;;;;;9.10;59.88;101286.13;2081660;28;20418;-66
2022/01/04 04:31:03;;;;;;;10.43;7.23;;;;;;;9.05;59.89;101283.00;2081639;28;20254;-66
2022/01/04 04:32:04;;;;;;;8.93;6.90;;;;;;;9.00;59.95;101292.50;2082224;28;20191;-66
2022/01/04 04:33:05;;;;;;;10.67;7.43;;;;;;;9.02;60.04;101289.34;2082223;28;20424;-66
2022/01/04 04:34:05;;;;;;;8.97;6.70;;;;;;;9.05;60.44;101296.81;2082176;28;20928;-66
2022/01/04 04:35:06;;;;;;;9.87;6.90;;;;;;;9.04;59.80;101298.81;2082130;28;20554;-66
2022/01/04 04:36:08;;;;;;;9.97;7.17;;;;;;;9.07;60.02;101303.50;2082218;28;20182;-66
2022/01/04 04:37:09;;;;;;;9.80;6.90;;;;;;;9.06;60.13;101296.41;2082177;28;20184;-66
2022/01/04 04:38:09;;;;;;;8.87;6.90;;;;;;;9.09;59.79;101294.81;2081974;28;20415;-66
2022/01/04 04:39:10;;;;;;;9.97;6.57;;;;;;;9.10;60.14;101293.63;2081492;28;20263;-66
2022/01/04 04:40:11;;;;;;;10.40;7.60;;;;;;;9.11;59.90;101289.66;2080249;28;20239;-66
2022/01/04 04:41:12;;;;;;;12.13;7.53;;;;;;;8.30;59.79;101160.34;2074055;28;20189;-66
2022/01/04 04:42:12;;;;;;;9.57;6.77;;;;;;;9.08;59.59;101277.44;2080708;28;20756;-66
2022/01/04 04:43:13;;;;;;;10.77;6.93;;;;;;;8.71;59.69;101224.78;2082158;28;20195;-66
2022/01/04 04:44:13;;;;;;;11.50;7.30;;;;;;;9.18;59.61;101295.16;2082155;28;20183;-66
2022/01/04 04:45:14;;;;;;;11.03;7.27;;;;;;;9.14;59.50;101295.19;2082129;28;20180;-66
2022/01/04 04:46:14;;;;;;;11.07;7.33;;;;;;;8.97;59.47;101282.25;2082027;28;20169;-66
2022/01/04 04:47:15;;;;;;;10.27;7.33;;;;;;;7.89;59.55;101114.44;2081997;28;20181;-66
2022/01/04 04:48:15;;;;;;;10.50;7.73;;;;;;;9.04;59.96;101300.78;2081681;28;20239;-66
2022/01/04 04:49:16;;;;;;;11.23;7.00;;;;;;;9.04;58.98;101298.81;2081935;28;20345;-66